Time;durP1;ratioP1;P1;durP2;ratioP2;P2;SDS_P1;SDS_P2;PMS_P1;PMS_P2;Temp;Humidity;BMP_temperature;BMP_pressure;BME280_temperature;BME280_humidity;BME280_pressure;Samples;Min_cycle;Max_cycle;Signal;HPM_P1;HPM_P2
2024/01/05 00:08:57;;;;;;;0.65;0.60;;;;;;;17.39;52.08;99899.50;20838142;28;20115;-64
2024/01/05 00:18:59;;;;;;;1.02;0.60;;;;;;;17.38;51.95;99888.91;20856834;28;20053;-64
2024/01/05 00:29:02;;;;;;;1.10;0.75;;;;;;;17.36;51.89;99864.00;20832624;28;20440;-65
2024/01/05 00:39:04;;;;;;;1.15;0.70;;;;;;;17.34;51.87;99855.25;20829338;28;20061;-65
2024/01/05 00:49:06;;;;;;;0.88;0.57;;;;;;;17.29;51.94;99826.13;20829456;28;20107;-65
2024/01/05 00:59:08;;;;;;;1.38;0.88;;;;;;;17.27;51.76;99805.78;20826490;28;20102;-63
2024/01/05 01:09:10;;;;;;;2.33;0.70;;;;;;;17.37;51.49;99801.13;20823977;28;20475;-64
2024/01/05 01:19:12;;;;;;;1.35;0.80;;;;;;;17.37;51.32;99790.38;20825687;28;20037;-64
2024/01/05 01:29:14;;;;;;;1.35;0.80;;;;;;;17.37;51.41;99779.59;20836915;28;20122;-63
2024/01/05 01:39:15;;;;;;;1.08;0.80;;;;;;;17.36;51.29;99770.69;20830305;28;20069;-64
2024/01/05 01:49:17;;;;;;;1.42;0.90;;;;;;;17.45;51.05;99752.72;20850132;28;20524;-64
2024/01/05 01:59:19;;;;;;;1.33;0.77;;;;;;;17.48;51.01;99732.75;20863424;28;20048;-64
2024/01/05 02:09:21;;;;;;;1.83;0.90;;;;;;;17.55;50.85;99704.19;20841419;28;20106;-64
2024/01/05 02:19:24;;;;;;;1.30;1.05;;;;;;;17.59;50.67;99686.69;20845954;28;20057;-63
2024/01/05 02:29:25;;;;;;;1.02;0.70;;;;;;;17.65;50.46;99652.88;20828866;28;20061;-64
2024/01/05 02:39:27;;;;;;;0.82;0.60;;;;;;;17.69;50.38;99638.13;20817408;28;20617;-64
2024/01/05 02:49:29;;;;;;;2.05;1.10;;;;;;;17.72;50.20;99635.09;20819068;28;20048;-64
2024/01/05 02:59:31;;;;;;;1.52;0.90;;;;;;;17.72;50.33;99613.56;20829801;28;20049;-64
2024/01/05 03:09:33;;;;;;;1.20;0.88;;;;;;;17.71;50.32;99609.19;20813343;28;20109;-64
2024/01/05 03:19:35;;;;;;;1.88;1.02;;;;;;;17.74;50.28;99605.28;20817017;28;20522;-64
2024/01/05 03:29:37;;;;;;;1.58;0.95;;;;;;;17.74;50.33;99591.84;20838452;28;20499;-64
2024/01/05 03:39:39;;;;;;;1.08;0.90;;;;;;;17.81;50.08;99571.31;20834202;28;20471;-65
2024/01/05 03:49:41;;;;;;;1.30;0.93;;;;;;;17.79;50.20;99559.88;20841576;28;20052;-64
2024/01/05 03:59:43;;;;;;;1.45;1.00;;;;;;;17.81;50.10;99545.25;20858864;28;20057;-64
2024/01/05 04:09:44;;;;;;;0.80;0.80;;;;;;;17.78;50.17;99529.44;20840328;28;20114;-64
2024/01/05 04:19:47;;;;;;;0.70;0.70;;;;;;;17.69;50.21;99503.53;20822435;28;20135;-64
2024/01/05 04:29:49;;;;;;;1.23;0.90;;;;;;;17.73;50.29;99507.56;20830842;28;20057;-63
2024/01/05 04:39:50;;;;;;;0.88;0.80;;;;;;;17.73;50.27;99495.94;20832121;28;20056;-64
2024/01/05 04:49:52;;;;;;;0.73;0.70;;;;;;;17.76;50.35;99477.63;20838128;28;20505;-64
2024/01/05 04:59:54;;;;;;;0.70;0.70;;;;;;;17.79;50.38;99460.28;20810155;28;20132;-63
2024/01/05 05:09:56;;;;;;;0.70;0.70;;;;;;;17.76;50.31;99450.69;20816426;28;20052;-64
2024/01/05 05:19:57;;;;;;;0.63;0.63;;;;;;;17.77;50.33;99438.94;20815287;28;20069;-64
2024/01/05 05:30:00;;;;;;;0.70;0.70;;;;;;;17.81;50.39;99436.72;20852203;28;20048;-64
2024/01/05 05:40:02;;;;;;;0.82;0.82;;;;;;;17.85;50.48;99429.16;20855160;28;20477;-64
2024/01/05 05:50:07;;;;;;;1.55;0.90;;;;;;;17.87;50.35;99413.66;20849752;28;20091;-64
2024/01/05 06:00:10;;;;;;;0.70;0.70;;;;;;;17.92;50.05;99420.22;20817319;28;20045;-64
2024/01/05 06:10:12;;;;;;;0.93;0.80;;;;;;;17.78;50.21;99383.22;20842937;28;20369;-64
2024/01/05 06:20:14;;;;;;;1.00;0.70;;;;;;;17.99;50.17;99417.66;20845903;28;20053;-64
2024/01/05 06:30:16;;;;;;;0.70;0.70;;;;;;;18.02;50.17;99411.94;20839689;28;20054;-64
2024/01/05 06:40:18;;;;;;;0.68;0.68;;;;;;;18.05;50.12;99400.84;20844346;28;20055;-64
2024/01/05 06:50:20;;;;;;;1.13;0.90;;;;;;;17.95;49.98;99378.63;20840566;28;20493;-64
2024/01/05 07:00:22;;;;;;;0.95;0.70;;;;;;;18.09;50.06;99391.38;20834430;28;20056;-64
2024/01/05 07:10:24;;;;;;;1.00;0.90;;;;;;;18.07;50.08;99388.03;20823811;28;20609;-64
2024/01/05 07:20:26;;;;;;;1.30;0.82;;;;;;;18.09;50.10;99367.16;20835120;28;20051;-64
2024/01/05 07:30:28;;;;;;;1.48;1.00;;;;;;;17.97;51.01;99380.16;20840038;28;20053;-64
2024/01/05 07:40:29;;;;;;;1.58;0.90;;;;;;;17.84;52.14;99361.00;20833160;28;20053;-73
2024/01/05 07:50:31;;;;;;;1.83;1.10;;;;;;;18.02;52.04;99357.28;20833625;28;20060;-73
2024/01/05 08:00:33;;;;;;;1.85;1.30;;;;;;;18.30;51.34;99351.41;20850047;28;20130;-74
2024/01/05 08:10:35;;;;;;;2.15;1.20;;;;;;;18.42;51.47;99350.00;20834572;28;20122;-75
2024/01/05 08:20:37;;;;;;;1.75;1.02;;;;;;;18.59;51.15;99326.47;20819372;28;20132;-73
2024/01/05 08:30:40;;;;;;;1.52;1.30;;;;;;;18.72;50.98;99336.63;20823247;28;20413;-73
2024/01/05 08:40:42;;;;;;;2.47;1.20;;;;;;;18.78;50.81;99327.84;20827112;28;20041;-71
2024/01/05 08:50:44;;;;;;;1.90;1.20;;;;;;;18.86;50.91;99329.63;20824591;28;20160;-72
2024/01/05 09:00:46;;;;;;;3.10;1.50;;;;;;;18.91;51.37;99331.78;20816888;28;20081;-73
2024/01/05 09:10:48;;;;;;;1.73;1.15;;;;;;;18.94;51.14;99331.44;20825501;28;20076;-72
2024/01/05 09:20:53;;;;;;;2.35;1.20;;;;;;;18.96;51.25;99346.41;20807877;28;20053;-71
2024/01/05 09:30:56;;;;;;;2.05;1.30;;;;;;;18.93;51.88;99346.75;20790556;28;20057;-70
2024/01/05 09:40:58;;;;;;;1.83;1.10;;;;;;;18.96;52.42;99343.69;20811809;28;20149;-71
2024/01/05 09:51:00;;;;;;;2.72;1.40;;;;;;;19.05;52.95;99351.78;20825754;28;20265;-70
2024/01/05 10:01:11;;;;;;;2.80;1.33;;;;;;;19.04;53.43;99361.72;20825591;28;20049;-71
2024/01/05 10:11:27;;;;;;;6.07;2.10;;;;;;;19.11;54.22;99369.91;20840215;28;20056;-69
2024/01/05 10:21:30;;;;;;;4.38;2.53;;;;;;;19.17;54.60;99339.50;20827292;28;20041;-69
2024/01/05 10:31:32;;;;;;;4.70;2.10;;;;;;;19.23;54.50;99328.00;20834077;28;20045;-71
2024/01/05 10:41:35;;;;;;;4.25;2.10;;;;;;;19.25;54.16;99315.16;20829819;28;20493;-71
2024/01/05 10:51:38;;;;;;;3.90;2.08;;;;;;;19.28;53.91;99314.78;20839451;28;20049;-71
2024/01/05 11:01:40;;;;;;;2.33;1.67;;;;;;;19.32;53.60;99317.09;20809768;28;20049;-71
2024/01/05 11:11:53;;;;;;;1.63;1.17;;;;;;;19.26;53.50;99303.34;20808679;28;20045;-71
2024/01/05 11:22:06;;;;;;;2.38;1.30;;;;;;;19.36;53.25;99304.91;20834477;28;20135;-71
2024/01/05 11:32:07;;;;;;;1.73;0.98;;;;;;;19.36;52.91;99300.38;20835932;28;20053;-71
2024/01/05 11:42:16;;;;;;;2.38;1.15;;;;;;;19.40;52.82;99300.81;20814929;28;20049;-71
2024/01/05 11:52:17;;;;;;;2.28;1.05;;;;;;;19.53;53.08;99287.53;20790880;28;20429;-72
2024/01/05 12:02:23;;;;;;;1.50;0.98;;;;;;;19.62;52.95;99288.25;20799197;28;20075;-71
2024/01/05 12:12:25;;;;;;;2.17;0.85;;;;;;;19.59;53.36;99271.63;20809522;28;20084;-72
2024/01/05 12:22:27;;;;;;;1.45;0.70;;;;;;;19.60;53.64;99270.59;20803658;28;20664;-73
2024/01/05 12:32:33;;;;;;;1.48;0.70;;;;;;;19.63;53.97;99272.91;20790402;28;20497;-73
2024/01/05 12:42:35;;;;;;;1.15;0.65;;;;;;;19.65;53.90;99270.88;20803616;28;20052;-73
2024/01/05 12:52:37;;;;;;;1.02;0.75;;;;;;;19.71;54.97;99270.97;20804278;28;20052;-72
2024/01/05 13:02:40;;;;;;;2.58;0.80;;;;;;;19.67;55.29;99261.56;20823486;28;20409;-71
2024/01/05 13:12:45;;;;;;;0.57;0.40;;;;;;;19.79;55.20;99274.56;20810204;28;20481;-71
2024/01/05 13:22:47;;;;;;;2.03;0.73;;;;;;;19.81;55.32;99276.03;20811391;28;20536;-70
2024/01/05 13:32:52;;;;;;;1.65;0.32;;;;;;;19.81;55.51;99275.22;20778613;28;20056;-72
2024/01/05 13:42:54;;;;;;;0.73;0.40;;;;;;;19.82;55.34;99277.72;20790563;28;20576;-73
2024/01/05 13:52:56;;;;;;;1.17;0.50;;;;;;;19.78;55.04;99284.53;20789996;28;20057;-72
2024/01/05 14:02:57;;;;;;;0.70;0.50;;;;;;;19.77;54.97;99288.25;20777178;28;20064;-72
2024/01/05 14:12:59;;;;;;;0.88;0.40;;;;;;;19.76;54.96;99297.38;20757677;28;20041;-70
2024/01/05 14:23:02;;;;;;;0.40;0.30;;;;;;;19.74;54.98;99295.91;20780027;28;20061;-71
2024/01/05 14:33:04;;;;;;;1.75;0.82;;;;;;;19.70;55.12;99303.53;20811804;28;20049;-71
2024/01/05 14:43:06;;;;;;;2.00;0.90;;;;;;;19.70;55.08;99308.94;20838750;28;20055;-74
2024/01/05 14:53:08;;;;;;;1.98;0.88;;;;;;;19.67;55.52;99309.31;20814177;28;20492;-72
2024/01/05 15:03:13;;;;;;;3.67;1.27;;;;;;;19.65;55.65;99314.88;20836632;28;20512;-71
2024/01/05 15:13:15;;;;;;;2.17;0.90;;;;;;;19.62;55.87;99309.03;20807682;28;20049;-72
2024/01/05 15:23:18;;;;;;;8.63;2.05;;;;;;;19.56;60.69;99321.41;20825091;28;20127;-73
2024/01/05 15:33:20;;;;;;;5.70;2.15;;;;;;;19.60;59.99;99329.97;20825430;28;20049;-72
2024/01/05 15:43:22;;;;;;;4.20;1.85;;;;;;;19.64;59.47;99326.69;20834546;28;20045;-71
2024/01/05 15:53:24;;;;;;;5.47;1.92;;;;;;;19.61;59.06;99328.97;20801020;28;20045;-71
2024/01/05 16:03:26;;;;;;;2.72;1.30;;;;;;;19.75;58.94;99346.19;20795974;28;20053;-69
2024/01/05 16:13:27;;;;;;;3.25;1.52;;;;;;;19.69;59.01;99348.63;20805012;28;20057;-73
2024/01/05 16:23:29;;;;;;;3.20;1.13;;;;;;;19.60;59.29;99359.69;20799954;28;20131;-67
2024/01/05 16:33:32;;;;;;;3.78;1.20;;;;;;;19.55;59.38;99352.97;20790724;28;20126;-68
2024/01/05 16:43:37;;;;;;;3.38;1.10;;;;;;;19.46;60.03;99354.09;20794944;28;20049;-74
2024/01/05 16:53:39;;;;;;;4.07;1.40;;;;;;;19.51;62.89;99372.41;20803390;28;20791;-70
2024/01/05 17:03:41;;;;;;;3.97;1.60;;;;;;;19.52;64.96;99380.34;20794932;28;20071;-75
2024/01/05 17:13:44;;;;;;;3.05;1.60;;;;;;;19.45;65.28;99383.94;20802790;28;20072;-71
2024/01/05 17:23:48;;;;;;;2.90;1.90;;;;;;;19.46;64.92;99401.81;20812294;28;20048;-70
2024/01/05 17:33:49;;;;;;;4.28;1.02;;;;;;;19.49;64.00;99412.25;20781256;28;20049;-70
2024/01/05 17:43:52;;;;;;;2.10;1.05;;;;;;;19.48;63.60;99424.06;20787309;28;20057;-74
2024/01/05 17:53:59;;;;;;;1.02;0.80;;;;;;;19.42;62.76;99428.31;20794678;28;20089;-67
2024/01/05 18:04:01;;;;;;;0.68;0.68;;;;;;;19.27;61.72;99426.44;20827446;28;20053;-67
2024/01/05 18:14:03;;;;;;;1.20;0.88;;;;;;;19.22;61.15;99455.81;20847895;28;20053;-67
2024/01/05 18:24:06;;;;;;;1.30;0.80;;;;;;;19.21;60.53;99470.31;20831384;28;20412;-68
2024/01/05 18:34:08;;;;;;;0.93;0.75;;;;;;;19.22;60.08;99492.72;20843691;28;20053;-69
2024/01/05 18:44:14;;;;;;;0.70;0.60;;;;;;;19.21;59.46;99497.31;20829897;28;20045;-68
2024/01/05 18:54:16;;;;;;;1.17;0.73;;;;;;;19.17;59.15;99511.31;20821525;28;20485;-67
2024/01/05 19:04:19;;;;;;;0.77;0.60;;;;;;;19.13;59.22;99537.81;20827884;28;20057;-69
2024/01/05 19:14:23;;;;;;;1.10;0.75;;;;;;;19.04;59.01;99560.47;20824667;28;20052;-68
2024/01/05 19:24:27;;;;;;;1.70;0.50;;;;;;;18.96;58.31;99567.53;20813125;28;20053;-69
2024/01/05 19:34:29;;;;;;;0.55;0.50;;;;;;;18.85;58.29;99586.81;20797297;28;20413;-69
2024/01/05 19:44:31;;;;;;;0.65;0.57;;;;;;;18.75;58.21;99592.41;20822132;28;20170;-68
2024/01/05 19:54:34;;;;;;;0.50;0.50;;;;;;;18.70;57.95;99605.56;20869865;28;20075;-69
2024/01/05 20:04:36;;;;;;;0.60;0.60;;;;;;;18.61;57.55;99626.31;20838150;28;20049;-69
2024/01/05 20:14:38;;;;;;;0.40;0.40;;;;;;;18.54;57.12;99646.88;20815321;28;20147;-69
2024/01/05 20:24:40;;;;;;;0.50;0.50;;;;;;;18.47;56.99;99656.66;20840628;28;20049;-69
2024/01/05 20:34:42;;;;;;;0.60;0.60;;;;;;;18.39;56.56;99666.44;20834924;28;20053;-69
2024/01/05 20:44:44;;;;;;;0.60;0.60;;;;;;;18.33;56.25;99688.66;20840677;28;20485;-69
2024/01/05 20:54:46;;;;;;;0.70;0.60;;;;;;;18.27;56.15;99702.81;20850652;28;20114;-69
2024/01/05 21:04:48;;;;;;;0.50;0.50;;;;;;;18.19;56.05;99724.38;20828057;28;20107;-69
2024/01/05 21:14:50;;;;;;;0.93;0.70;;;;;;;18.16;55.68;99724.69;20861546;28;20095;-69
2024/01/05 21:24:51;;;;;;;0.60;0.60;;;;;;;18.10;55.49;99743.19;20852270;28;20459;-69
2024/01/05 21:34:56;;;;;;;0.70;0.70;;;;;;;18.01;55.31;99749.56;20832484;28;20060;-69
2024/01/05 21:44:58;;;;;;;0.70;0.70;;;;;;;18.00;55.15;99774.78;20867118;28;20076;-69
2024/01/05 21:55:00;;;;;;;0.50;0.50;;;;;;;18.03;54.76;99782.56;20843496;28;20044;-69
2024/01/05 22:05:04;;;;;;;0.70;0.70;;;;;;;18.03;54.21;99796.03;20862505;28;20041;-69
2024/01/05 22:15:06;;;;;;;0.50;0.50;;;;;;;18.01;53.94;99800.75;20869386;28;20132;-69
2024/01/05 22:25:08;;;;;;;0.77;0.77;;;;;;;17.96;53.72;99829.97;20845960;28;20044;-69
2024/01/05 22:35:10;;;;;;;0.77;0.77;;;;;;;17.91;53.63;99848.47;20852663;28;20128;-69
2024/01/05 22:45:12;;;;;;;0.70;0.70;;;;;;;17.87;53.45;99863.28;20847878;28;20048;-69
2024/01/05 22:55:14;;;;;;;0.60;0.60;;;;;;;17.83;53.34;99885.13;20855955;28;20096;-69
2024/01/05 23:05:15;;;;;;;0.63;0.63;;;;;;;17.72;53.42;99889.94;20834232;28;20128;-69
2024/01/05 23:15:18;;;;;;;0.60;0.60;;;;;;;17.72;53.36;99904.25;20860664;28;20055;-69
2024/01/05 23:25:19;;;;;;;0.68;0.55;;;;;;;17.72;53.05;99923.09;20863664;28;20038;-69
2024/01/05 23:35:21;;;;;;;0.70;0.70;;;;;;;17.71;52.85;99925.94;20858464;28;20107;-69
2024/01/05 23:45:23;;;;;;;0.60;0.60;;;;;;;17.65;52.75;99935.50;20843861;28;20068;-69
2024/01/05 23:55:25;;;;;;;0.60;0.60;;;;;;;17.62;52.61;99960.88;20858051;28;20041;-69
